Time;durP1;ratioP1;P1;durP2;ratioP2;P2;SDS_P1;SDS_P2;PMS_P1;PMS_P2;Temp;Humidity;BMP_temperature;BMP_pressure;BME280_temperature;BME280_humidity;BME280_pressure;Samples;Min_cycle;Max_cycle;Signal;HPM_P1;HPM_P2
2022/06/02 00:00:12;;;;;;;2.57;2.20;;;13.10;99.90;;;;;;5048213;28;20192;-76
2022/06/02 00:02:58;;;;;;;2.13;2.03;;;13.00;99.90;;;;;;5048337;28;20204;-77
2022/06/02 00:05:29;;;;;;;2.13;2.03;;;13.10;99.90;;;;;;5048128;28;20696;-74
2022/06/02 00:08:05;;;;;;;1.80;1.80;;;13.10;99.90;;;;;;5047807;28;20250;-74
2022/06/02 00:10:45;;;;;;;1.90;1.80;;;13.10;99.90;;;;;;5031857;28;20212;-74
2022/06/02 00:13:21;;;;;;;2.30;2.10;;;13.10;99.90;;;;;;5028138;28;20193;-74
2022/06/02 00:15:53;;;;;;;2.00;1.90;;;13.20;99.90;;;;;;5037688;28;20216;-74
2022/06/02 00:18:27;;;;;;;1.93;1.80;;;13.10;99.90;;;;;;5041049;28;20210;-74
2022/06/02 00:20:59;;;;;;;2.10;2.00;;;13.10;99.90;;;;;;5044636;28;20208;-74
2022/06/02 00:23:42;;;;;;;2.13;2.03;;;13.00;99.90;;;;;;5027838;28;20197;-74
2022/06/02 00:26:23;;;;;;;2.30;2.20;;;13.00;99.90;;;;;;5027914;28;20189;-74
2022/06/02 00:29:00;;;;;;;2.10;2.00;;;13.10;99.90;;;;;;5034249;28;20282;-77
2022/06/02 00:31:36;;;;;;;1.53;1.50;;;13.30;99.90;;;;;;5029611;28;20207;-77
2022/06/02 00:34:11;;;;;;;2.10;2.00;;;13.50;99.90;;;;;;5041766;28;20196;-76
2022/06/02 00:36:42;;;;;;;2.20;2.10;;;13.60;99.90;;;;;;5047434;28;20230;-75
2022/06/02 00:39:09;;;;;;;2.10;2.00;;;13.60;99.90;;;;;;5047565;28;20192;-75
2022/06/02 00:41:44;;;;;;;1.80;1.80;;;13.60;99.90;;;;;;5046358;28;21069;-74
2022/06/02 00:44:22;;;;;;;2.30;2.20;;;13.50;99.90;;;;;;5047420;28;20241;-74
2022/06/02 00:46:59;;;;;;;2.47;2.27;;;13.70;99.90;;;;;;5047609;28;20196;-74
2022/06/02 00:49:36;;;;;;;1.97;1.87;;;13.70;99.90;;;;;;5047705;28;20200;-74
2022/06/02 00:52:18;;;;;;;2.10;2.00;;;13.80;99.90;;;;;;5029524;28;20283;-75
2022/06/02 00:57:45;;;;;;;1.93;1.83;;;14.00;99.90;;;;;;5027434;28;20200;-74
2022/06/02 01:00:16;;;;;;;1.93;1.90;;;13.80;99.90;;;;;;5027826;28;20250;-74
2022/06/02 01:02:51;;;;;;;2.40;2.20;;;14.00;99.90;;;;;;5027618;28;20197;-74
2022/06/02 01:05:28;;;;;;;2.50;2.30;;;14.00;99.90;;;;;;5027373;28;20208;-73
2022/06/02 01:08:05;;;;;;;2.20;2.10;;;13.60;99.90;;;;;;5046440;28;20203;-73
2022/06/02 01:10:44;;;;;;;2.23;2.13;;;13.40;99.90;;;;;;5040157;28;20749;-73
2022/06/02 01:13:41;;;;;;;2.37;2.27;;;13.10;99.90;;;;;;5027177;28;20197;-73
2022/06/02 01:16:15;;;;;;;2.30;2.20;;;12.80;99.90;;;;;;5027185;28;20212;-75
2022/06/02 01:18:57;;;;;;;2.63;2.43;;;12.90;99.90;;;;;;5042727;28;20197;-73
2022/06/02 01:21:40;;;;;;;2.33;2.20;;;13.00;99.90;;;;;;5035527;28;20205;-73
2022/06/02 01:24:35;;;;;;;2.40;2.30;;;12.90;99.90;;;;;;5030406;28;20203;-73
2022/06/02 01:27:21;;;;;;;2.50;2.40;;;12.70;99.90;;;;;;5047185;28;20195;-74
2022/06/02 01:30:21;;;;;;;2.33;2.23;;;12.80;99.90;;;;;;5044693;28;20220;-73
2022/06/02 01:32:58;;;;;;;2.30;2.20;;;12.70;99.90;;;;;;5025118;28;20347;-72
2022/06/02 01:35:34;;;;;;;2.60;2.40;;;12.50;99.90;;;;;;5030036;28;20228;-73
2022/06/02 01:38:06;;;;;;;2.33;2.23;;;12.30;99.90;;;;;;5030450;28;20600;-73
2022/06/02 01:40:38;;;;;;;2.63;2.53;;;12.40;99.90;;;;;;5030485;28;20208;-73
2022/06/02 01:43:13;;;;;;;2.43;2.33;;;12.50;99.90;;;;;;5045193;28;20242;-73
2022/06/02 01:46:23;;;;;;;3.70;2.00;;;12.70;99.90;;;;;;5050251;28;20188;-73
2022/06/02 01:48:59;;;;;;;2.13;2.03;;;12.80;99.90;;;;;;5047440;28;20216;-73
2022/06/02 01:51:35;;;;;;;2.13;2.00;;;12.80;99.90;;;;;;5050774;28;20227;-75
2022/06/02 01:54:15;;;;;;;2.40;2.30;;;13.00;99.90;;;;;;5041678;28;20188;-75
2022/06/02 01:56:56;;;;;;;2.47;2.10;;;13.20;99.90;;;;;;5030409;28;20735;-74
2022/06/02 01:59:41;;;;;;;1.80;1.70;;;13.10;99.90;;;;;;5030950;28;20251;-75
2022/06/02 02:02:17;;;;;;;2.40;2.30;;;13.20;99.90;;;;;;5047376;28;20192;-72
2022/06/02 02:05:08;;;;;;;2.30;2.20;;;13.20;99.90;;;;;;5050360;28;20196;-72
2022/06/02 02:07:46;;;;;;;2.17;2.07;;;13.20;99.90;;;;;;5034430;28;20200;-72
2022/06/02 02:10:26;;;;;;;2.30;2.20;;;13.20;99.90;;;;;;5049824;28;20211;-72
2022/06/02 02:13:03;;;;;;;3.90;1.90;;;13.30;99.90;;;;;;5046197;28;20189;-73
2022/06/02 02:15:43;;;;;;;2.07;1.97;;;13.30;99.90;;;;;;5030196;28;20193;-73
2022/06/02 02:18:22;;;;;;;2.00;1.90;;;13.20;99.90;;;;;;5049046;28;20203;-74
2022/06/02 02:21:00;;;;;;;2.10;2.00;;;13.30;99.90;;;;;;5042722;28;20200;-72
2022/06/02 02:23:32;;;;;;;2.10;2.00;;;13.40;99.90;;;;;;5029664;28;20587;-72
2022/06/02 02:26:13;;;;;;;2.20;2.10;;;13.00;99.90;;;;;;5029676;28;20584;-72
2022/06/02 02:28:51;;;;;;;2.40;2.30;;;12.90;99.90;;;;;;5047240;28;20227;-71
2022/06/02 02:31:30;;;;;;;2.13;1.87;;;13.00;99.90;;;;;;5049194;28;20293;-72
2022/06/02 02:34:06;;;;;;;2.30;2.20;;;12.90;99.90;;;;;;5027609;28;21096;-72
2022/06/02 02:36:42;;;;;;;1.80;1.70;;;13.00;99.90;;;;;;5028022;28;20232;-72
2022/06/02 02:39:15;;;;;;;2.10;2.00;;;13.10;99.90;;;;;;5027220;28;20242;-71
2022/06/02 02:41:48;;;;;;;2.00;1.90;;;13.00;99.90;;;;;;5027368;28;20295;-71
2022/06/02 02:44:22;;;;;;;2.10;2.00;;;13.00;99.90;;;;;;5042905;28;20239;-72
2022/06/02 02:46:57;;;;;;;2.10;2.00;;;12.70;99.90;;;;;;5045908;28;20196;-71
2022/06/02 02:49:29;;;;;;;2.67;2.20;;;12.50;99.90;;;;;;5047123;28;20200;-71
2022/06/02 02:52:03;;;;;;;2.10;2.00;;;12.40;99.90;;;;;;5031379;28;20707;-71
2022/06/02 02:54:37;;;;;;;2.10;2.00;;;12.40;99.90;;;;;;5026846;28;20610;-72
2022/06/02 02:57:08;;;;;;;2.37;1.90;;;12.40;99.90;;;;;;5026939;28;20254;-72
2022/06/02 02:59:42;;;;;;;1.97;1.83;;;12.30;99.90;;;;;;5027610;28;20205;-72
2022/06/02 03:02:20;;;;;;;1.90;1.80;;;12.20;99.90;;;;;;5029926;28;20222;-72
2022/06/02 03:04:54;;;;;;;1.77;1.67;;;12.30;99.90;;;;;;5047440;28;20287;-72
2022/06/02 03:07:22;;;;;;;1.70;1.70;;;12.20;99.90;;;;;;5047090;28;20262;-72
2022/06/02 03:10:01;;;;;;;2.07;1.97;;;12.30;99.90;;;;;;5046823;28;20261;-73
2022/06/02 03:12:41;;;;;;;1.80;1.70;;;12.00;99.90;;;;;;5033601;28;20201;-73
2022/06/02 03:15:17;;;;;;;1.60;1.50;;;12.00;99.90;;;;;;5048838;28;20192;-73
2022/06/02 03:18:04;;;;;;;2.10;2.00;;;12.00;99.90;;;;;;5048148;28;20254;-72
2022/06/02 03:20:41;;;;;;;2.00;1.90;;;12.10;99.90;;;;;;5048597;28;20365;-72
2022/06/02 03:23:34;;;;;;;1.77;1.77;;;12.10;99.90;;;;;;5048523;28;20581;-72
2022/06/02 03:26:15;;;;;;;2.40;1.90;;;11.90;99.90;;;;;;5048553;28;20609;-72
2022/06/02 03:28:50;;;;;;;1.63;1.60;;;11.70;99.90;;;;;;5048772;28;20200;-73
2022/06/02 03:31:24;;;;;;;1.83;1.73;;;11.70;99.90;;;;;;5048253;28;20228;-73
2022/06/02 03:34:03;;;;;;;2.30;1.70;;;11.80;99.90;;;;;;5048435;28;20245;-72
2022/06/02 03:36:57;;;;;;;1.80;1.80;;;11.50;99.90;;;;;;5048317;28;20559;-73
2022/06/02 03:39:39;;;;;;;2.00;1.90;;;11.60;99.90;;;;;;5048077;28;20196;-73
2022/06/02 03:42:19;;;;;;;1.50;1.50;;;11.70;99.90;;;;;;5047708;28;20646;-74
2022/06/02 03:45:10;;;;;;;1.87;1.77;;;11.80;99.90;;;;;;5048240;28;20200;-73
2022/06/02 03:48:05;;;;;;;2.00;1.90;;;11.70;99.90;;;;;;5048175;28;20212;-73
2022/06/02 03:50:55;;;;;;;2.00;1.90;;;11.60;99.90;;;;;;5048106;28;20228;-73
2022/06/02 03:53:37;;;;;;;1.83;1.73;;;11.70;99.90;;;;;;5023506;28;20666;-72
2022/06/02 03:56:30;;;;;;;2.00;1.90;;;11.60;99.90;;;;;;5047886;28;20356;-72
2022/06/02 03:59:24;;;;;;;1.90;1.80;;;11.60;99.90;;;;;;5048398;28;20601;-72
2022/06/02 04:01:59;;;;;;;2.07;1.97;;;11.60;99.90;;;;;;5042497;28;20787;-72
2022/06/02 04:04:36;;;;;;;1.70;1.70;;;11.70;99.90;;;;;;5048059;28;20203;-73
2022/06/02 04:07:17;;;;;;;1.63;1.63;;;11.90;99.90;;;;;;5047876;28;20239;-72
2022/06/02 04:09:50;;;;;;;1.47;1.47;;;11.90;99.90;;;;;;5047747;28;20601;-73
2022/06/02 04:15:51;;;;;;;1.80;1.70;;;12.30;99.90;;;;;;4986123;28;20221;-73
2022/06/02 04:18:30;;;;;;;1.70;1.60;;;12.20;99.90;;;;;;5040651;28;20207;-73
2022/06/02 04:21:12;;;;;;;1.90;1.80;;;12.00;99.90;;;;;;5047854;28;20431;-73
2022/06/02 04:23:53;;;;;;;2.10;2.00;;;12.00;99.90;;;;;;5047360;28;20592;-73
2022/06/02 04:26:41;;;;;;;2.00;1.80;;;12.10;99.90;;;;;;5047839;28;20258;-73
2022/06/02 04:29:22;;;;;;;1.60;1.60;;;12.10;99.90;;;;;;5047459;28;20242;-73
2022/06/02 04:32:00;;;;;;;2.00;1.77;;;12.20;99.90;;;;;;5047614;28;20224;-73
2022/06/02 04:34:35;;;;;;;2.10;2.00;;;12.20;99.90;;;;;;5047818;28;20287;-72
2022/06/02 04:37:10;;;;;;;2.23;2.13;;;12.00;99.90;;;;;;5047305;28;20220;-73
2022/06/02 04:39:48;;;;;;;2.20;2.10;;;12.00;99.90;;;;;;5047607;28;20195;-73
2022/06/02 04:42:24;;;;;;;2.83;2.70;;;11.90;99.90;;;;;;5046880;28;20323;-73
2022/06/02 04:45:05;;;;;;;2.63;2.53;;;11.90;99.90;;;;;;5047507;28;20196;-73
2022/06/02 04:47:46;;;;;;;2.93;2.70;;;11.80;99.90;;;;;;5047381;28;20622;-72
2022/06/02 04:50:21;;;;;;;2.80;2.70;;;11.80;99.90;;;;;;5047489;28;20192;-73
2022/06/02 04:52:59;;;;;;;2.80;2.70;;;11.90;99.90;;;;;;5047445;28;20195;-72
2022/06/02 04:55:34;;;;;;;3.10;2.90;;;12.00;99.90;;;;;;5047537;28;20219;-72
2022/06/02 04:58:10;;;;;;;2.93;2.83;;;12.00;99.90;;;;;;5047130;28;20563;-73
2022/06/02 05:00:47;;;;;;;3.27;3.07;;;11.80;99.90;;;;;;5047207;28;20233;-73
2022/06/02 05:03:20;;;;;;;3.50;3.30;;;11.90;99.90;;;;;;5047229;28;20195;-72
2022/06/02 05:05:56;;;;;;;3.40;3.20;;;12.00;99.90;;;;;;5047226;28;20200;-73
2022/06/02 05:08:43;;;;;;;3.70;3.50;;;12.10;99.90;;;;;;5047247;28;20283;-73
2022/06/02 05:11:21;;;;;;;3.50;3.30;;;12.00;99.90;;;;;;5030588;28;20227;-73
2022/06/02 05:13:57;;;;;;;3.77;3.47;;;11.90;99.90;;;;;;5030883;28;20197;-72
2022/06/02 05:16:32;;;;;;;3.73;3.53;;;12.00;99.90;;;;;;5030849;28;20193;-73
2022/06/02 05:19:16;;;;;;;4.00;3.70;;;12.20;99.90;;;;;;5049540;28;20254;-72
2022/06/02 05:22:14;;;;;;;3.70;3.50;;;12.00;99.90;;;;;;5050887;28;20212;-73
2022/06/02 05:25:02;;;;;;;4.47;4.17;;;12.10;99.90;;;;;;5050424;28;20197;-73
2022/06/02 05:28:11;;;;;;;5.00;4.70;;;12.10;99.90;;;;;;5051002;28;20204;-73
2022/06/02 05:31:13;;;;;;;4.30;4.07;;;11.90;99.90;;;;;;4988581;28;20249;-72
2022/06/02 05:34:08;;;;;;;4.40;4.10;;;11.80;99.90;;;;;;4937180;28;20257;-73
2022/06/02 05:36:47;;;;;;;5.30;4.90;;;12.10;99.90;;;;;;5025880;28;20229;-73
2022/06/02 05:39:35;;;;;;;5.50;5.13;;;12.10;99.90;;;;;;5030317;28;20197;-72
2022/06/02 05:42:14;;;;;;;6.77;6.27;;;12.00;99.90;;;;;;5029808;28;20237;-72
2022/06/02 05:44:54;;;;;;;6.83;6.33;;;11.90;99.90;;;;;;5030718;28;20227;-73
2022/06/02 05:47:32;;;;;;;6.30;5.90;;;11.80;99.90;;;;;;5035194;28;20258;-73
2022/06/02 05:50:07;;;;;;;7.43;6.47;;;11.80;99.90;;;;;;5050161;28;20192;-73
2022/06/02 05:52:45;;;;;;;6.83;6.17;;;11.80;99.90;;;;;;5046825;28;20220;-72
2022/06/02 05:55:29;;;;;;;7.10;6.60;;;11.80;99.90;;;;;;5029893;28;20713;-72
2022/06/02 05:58:15;;;;;;;7.47;6.87;;;11.80;99.90;;;;;;5030191;28;20197;-73
2022/06/02 06:00:54;;;;;;;7.37;6.77;;;12.00;99.90;;;;;;5030084;28;20636;-73
2022/06/02 06:03:44;;;;;;;6.70;6.30;;;12.10;99.90;;;;;;5029871;28;20709;-73
2022/06/02 06:06:22;;;;;;;6.90;6.30;;;12.40;99.90;;;;;;5029794;28;20240;-73
2022/06/02 06:09:01;;;;;;;7.30;6.70;;;12.20;99.90;;;;;;5029893;28;20567;-73
2022/06/02 06:11:43;;;;;;;6.87;6.37;;;12.20;99.90;;;;;;5029881;28;20227;-73
2022/06/02 06:14:20;;;;;;;7.27;6.77;;;12.30;99.90;;;;;;5029956;28;20189;-73
2022/06/02 06:16:57;;;;;;;5.77;5.37;;;12.30;99.90;;;;;;5030151;28;20212;-73
2022/06/02 06:19:39;;;;;;;7.17;6.67;;;12.50;99.90;;;;;;5049784;28;20195;-73
2022/06/02 06:22:36;;;;;;;6.83;6.33;;;12.50;99.90;;;;;;5049546;28;20236;-73
2022/06/02 06:25:22;;;;;;;6.53;6.03;;;12.60;99.90;;;;;;5049468;28;20197;-73
2022/06/02 06:28:02;;;;;;;8.10;6.33;;;12.80;99.90;;;;;;5049366;28;20242;-73
2022/06/02 06:30:38;;;;;;;6.87;6.20;;;13.00;99.90;;;;;;5049681;28;20203;-73
2022/06/02 06:33:14;;;;;;;6.10;5.60;;;13.00;99.90;;;;;;5049445;28;20314;-73
2022/06/02 06:35:54;;;;;;;7.03;6.43;;;13.10;99.90;;;;;;5049648;28;20228;-73
2022/06/02 06:38:45;;;;;;;6.33;5.93;;;12.90;99.90;;;;;;5049435;28;20208;-73
2022/06/02 06:41:35;;;;;;;7.47;6.20;;;12.80;99.90;;;;;;5049016;28;20239;-73
2022/06/02 06:44:18;;;;;;;6.37;5.93;;;12.90;99.90;;;;;;5049185;28;20639;-73
2022/06/02 06:46:50;;;;;;;5.20;4.90;;;12.90;99.90;;;;;;5049399;28;20226;-73
2022/06/02 06:49:21;;;;;;;6.87;6.37;;;13.10;99.90;;;;;;5049024;28;20960;-73
2022/06/02 06:52:12;;;;;;;5.90;5.50;;;13.30;99.90;;;;;;5049077;28;20238;-73
2022/06/02 06:54:49;;;;;;;5.60;5.10;;;13.50;99.90;;;;;;5049244;28;20599;-73
2022/06/02 06:57:26;;;;;;;5.83;5.43;;;13.70;99.90;;;;;;5048970;28;20226;-73
2022/06/02 07:00:02;;;;;;;6.60;6.17;;;13.70;99.90;;;;;;5049548;28;20415;-73
2022/06/02 07:02:36;;;;;;;6.00;5.50;;;13.60;99.90;;;;;;5045062;28;20576;-73
2022/06/02 07:05:10;;;;;;;7.00;6.37;;;13.50;99.90;;;;;;5028997;28;20247;-73
2022/06/02 07:07:46;;;;;;;5.90;5.50;;;13.50;99.90;;;;;;5029340;28;20239;-73
2022/06/02 07:10:21;;;;;;;5.57;5.23;;;13.70;99.90;;;;;;5028852;28;20590;-73
2022/06/02 07:12:53;;;;;;;6.57;5.97;;;13.80;99.90;;;;;;5029085;28;20271;-73
2022/06/02 07:15:45;;;;;;;5.93;5.40;;;14.00;99.90;;;;;;5029169;28;20277;-73
2022/06/02 07:18:21;;;;;;;5.67;5.17;;;13.90;99.90;;;;;;5044664;28;20208;-73
2022/06/02 07:20:54;;;;;;;5.40;5.00;;;13.90;99.90;;;;;;5042310;28;20604;-73
2022/06/02 07:23:31;;;;;;;5.00;4.70;;;13.90;99.90;;;;;;5028032;28;20656;-73
2022/06/02 07:26:16;;;;;;;5.40;4.90;;;14.00;99.90;;;;;;5028493;28;20204;-73
2022/06/02 07:28:56;;;;;;;8.37;5.93;;;14.10;99.90;;;;;;5028705;28;20201;-73
2022/06/02 07:31:35;;;;;;;3.80;3.60;;;14.30;99.90;;;;;;5028054;28;20189;-73
2022/06/02 07:34:18;;;;;;;4.27;3.97;;;14.40;99.90;;;;;;5028285;28;20204;-73
2022/06/02 07:37:02;;;;;;;4.97;4.23;;;14.50;99.90;;;;;;5028233;28;20294;-73
2022/06/02 07:39:58;;;;;;;4.73;4.33;;;14.50;99.90;;;;;;5028138;28;20196;-73
2022/06/02 07:43:05;;;;;;;3.80;3.47;;;14.50;99.90;;;;;;5027791;28;20245;-73
2022/06/02 07:45:36;;;;;;;4.83;4.40;;;14.70;99.90;;;;;;5035431;28;20200;-73
2022/06/02 07:48:40;;;;;;;4.33;3.93;;;14.40;99.90;;;;;;5047929;28;20208;-73
2022/06/02 07:51:18;;;;;;;3.73;3.43;;;14.40;99.90;;;;;;5043976;28;20207;-73
2022/06/02 07:54:17;;;;;;;7.67;7.07;;;14.40;99.90;;;;;;5047874;28;20341;-73
2022/06/02 07:56:51;;;;;;;4.57;4.27;;;14.50;99.90;;;;;;5048054;28;20238;-73
2022/06/02 07:59:29;;;;;;;4.30;4.00;;;14.50;99.90;;;;;;5038810;28;20305;-73
2022/06/02 08:02:14;;;;;;;5.53;3.87;;;14.60;99.90;;;;;;5027871;28;20197;-73
2022/06/02 08:04:53;;;;;;;4.13;3.80;;;14.70;99.90;;;;;;5027851;28;20246;-73
2022/06/02 08:07:27;;;;;;;5.03;3.40;;;14.80;99.90;;;;;;5027834;28;20196;-73
2022/06/02 08:10:10;;;;;;;4.67;3.07;;;14.90;99.90;;;;;;5027735;28;20608;-73
2022/06/02 08:12:47;;;;;;;3.17;2.90;;;14.90;99.90;;;;;;5027664;28;20220;-73
2022/06/02 08:15:27;;;;;;;3.80;3.50;;;14.90;99.90;;;;;;5027917;28;20193;-73
2022/06/02 08:17:58;;;;;;;3.43;2.77;;;14.70;99.90;;;;;;5036820;28;20195;-73
2022/06/02 08:20:37;;;;;;;3.33;3.03;;;14.70;99.90;;;;;;5044012;28;20649;-73
2022/06/02 08:23:14;;;;;;;2.90;2.60;;;14.70;99.90;;;;;;5027612;28;20197;-73
2022/06/02 08:25:50;;;;;;;3.33;2.30;;;14.60;99.90;;;;;;5027975;28;20255;-73
2022/06/02 08:28:30;;;;;;;2.97;2.73;;;14.50;99.90;;;;;;5027635;28;20197;-73
2022/06/02 08:31:12;;;;;;;2.17;1.93;;;14.60;99.90;;;;;;5027823;28;20197;-73
2022/06/02 08:33:49;;;;;;;2.67;1.83;;;14.70;99.90;;;;;;5027332;28;20687;-74
2022/06/02 08:36:23;;;;;;;2.27;2.07;;;14.90;99.90;;;;;;5026985;28;20233;-73
2022/06/02 08:39:10;;;;;;;2.97;2.30;;;15.10;99.90;;;;;;5027453;28;20193;-73
2022/06/02 08:42:10;;;;;;;4.07;2.20;;;15.20;99.90;;;;;;5032851;28;20224;-73
2022/06/02 08:45:13;;;;;;;1.70;1.60;;;15.40;99.90;;;;;;5051238;28;20238;-73
2022/06/02 08:48:29;;;;;;;2.20;2.00;;;15.60;99.90;;;;;;5051362;28;20974;-73
2022/06/02 08:51:39;;;;;;;3.13;2.00;;;15.70;99.90;;;;;;5051767;28;20211;-73
2022/06/02 08:54:31;;;;;;;2.13;1.90;;;15.70;99.90;;;;;;5050973;28;20203;-73
2022/06/02 08:57:26;;;;;;;2.83;1.90;;;15.70;99.90;;;;;;5031382;28;20193;-73
2022/06/02 09:00:19;;;;;;;2.03;1.90;;;15.70;99.90;;;;;;5031274;28;20644;-73
2022/06/02 09:03:33;;;;;;;1.80;1.70;;;15.70;99.90;;;;;;5031354;28;20208;-73
2022/06/02 09:06:41;;;;;;;1.67;1.57;;;15.80;99.90;;;;;;5031298;28;20227;-73
2022/06/02 09:09:53;;;;;;;2.53;1.60;;;15.90;99.90;;;;;;5030844;28;20266;-73
2022/06/02 09:12:33;;;;;;;2.40;1.33;;;15.80;99.90;;;;;;5002762;28;20290;-73
2022/06/02 09:15:20;;;;;;;3.57;1.50;;;15.80;99.90;;;;;;5031194;28;20221;-73
2022/06/02 09:18:01;;;;;;;5.97;1.70;;;15.70;99.90;;;;;;5044321;28;20204;-73
2022/06/02 09:20:43;;;;;;;7.50;4.00;;;15.80;99.90;;;;;;5050931;28;20196;-73
2022/06/02 09:23:31;;;;;;;1.63;1.50;;;15.80;99.90;;;;;;5050355;28;20196;-73
2022/06/02 09:26:15;;;;;;;1.90;1.50;;;15.70;99.90;;;;;;5050919;28;20188;-73
2022/06/02 09:29:17;;;;;;;1.70;1.40;;;15.80;99.90;;;;;;5050507;28;20983;-73
2022/06/02 09:31:59;;;;;;;1.63;1.53;;;16.00;99.90;;;;;;5043345;28;20279;-73
2022/06/02 09:34:54;;;;;;;1.47;1.30;;;16.20;99.90;;;;;;5050986;28;20196;-73
2022/06/02 09:37:43;;;;;;;1.13;1.13;;;16.10;99.90;;;;;;5050240;28;20721;-73
2022/06/02 09:40:43;;;;;;;6.70;2.00;;;16.10;99.90;;;;;;5050366;28;20238;-73
2022/06/02 09:43:52;;;;;;;1.97;1.60;;;16.00;99.90;;;;;;5050470;28;20197;-73
2022/06/02 09:47:14;;;;;;;1.97;1.50;;;16.20;99.90;;;;;;5050374;28;20238;-74
2022/06/02 09:50:18;;;;;;;2.70;1.47;;;16.50;99.90;;;;;;5030509;28;20251;-73
2022/06/02 09:53:24;;;;;;;1.30;1.30;;;16.60;99.90;;;;;;5046697;28;20281;-73
2022/06/02 09:56:25;;;;;;;1.33;1.30;;;16.60;99.90;;;;;;5049667;28;20192;-73
2022/06/02 09:59:02;;;;;;;1.80;1.70;;;16.50;99.90;;;;;;5049917;28;20258;-73
2022/06/02 10:01:38;;;;;;;3.03;1.20;;;16.50;99.90;;;;;;5050058;28;20196;-73
2022/06/02 10:04:38;;;;;;;2.97;1.43;;;16.40;99.90;;;;;;5049899;28;20200;-73
2022/06/02 10:07:33;;;;;;;2.23;1.90;;;16.50;99.90;;;;;;5036640;28;20219;-73
2022/06/02 10:10:23;;;;;;;1.53;1.50;;;16.60;99.90;;;;;;5049619;28;20200;-73
2022/06/02 10:13:22;;;;;;;1.47;1.30;;;16.60;99.90;;;;;;5049307;28;20666;-73
2022/06/02 10:16:16;;;;;;;4.43;1.70;;;16.50;99.90;;;;;;5049754;28;20687;-73
2022/06/02 10:18:57;;;;;;;1.40;1.30;;;16.30;99.90;;;;;;5045628;28;20211;-74
2022/06/02 10:21:43;;;;;;;5.87;1.23;;;16.40;99.90;;;;;;5049621;28;20203;-73
2022/06/02 10:24:44;;;;;;;2.30;1.30;;;16.60;99.90;;;;;;5049191;28;20204;-73
2022/06/02 10:27:26;;;;;;;1.40;1.30;;;16.90;99.90;;;;;;5049438;28;20210;-73
2022/06/02 10:30:42;;;;;;;4.23;3.47;;;17.10;99.90;;;;;;5049746;28;20218;-73
2022/06/02 10:33:43;;;;;;;1.37;1.30;;;17.40;99.90;;;;;;4987211;28;20397;-73
2022/06/02 10:36:39;;;;;;;3.50;1.40;;;17.50;99.70;;;;;;5049228;28;20240;-73
2022/06/02 10:39:23;;;;;;;0.70;0.70;;;17.50;98.80;;;;;;5049354;28;20262;-73
2022/06/02 10:42:06;;;;;;;2.33;1.20;;;17.60;99.60;;;;;;5049081;28;20324;-73
2022/06/02 10:45:09;;;;;;;2.83;1.40;;;17.80;99.60;;;;;;5049886;28;20250;-73
2022/06/02 10:48:25;;;;;;;1.47;1.37;;;17.70;99.80;;;;;;5048978;28;20710;-73
2022/06/02 10:51:20;;;;;;;1.53;1.00;;;17.80;99.20;;;;;;4987521;28;20752;-73
2022/06/02 10:54:08;;;;;;;2.07;1.50;;;17.90;99.10;;;;;;5041343;28;20232;-73
2022/06/02 10:57:20;;;;;;;1.30;1.30;;;17.60;99.10;;;;;;5049199;28;20685;-73
2022/06/02 11:00:05;;;;;;;0.90;0.90;;;17.50;99.50;;;;;;5013228;28;20217;-74
2022/06/02 11:03:14;;;;;;;1.60;1.50;;;17.70;99.10;;;;;;5049173;28;20551;-74
2022/06/02 11:06:31;;;;;;;1.83;1.10;;;17.90;99.00;;;;;;5049067;28;20269;-73
2022/06/02 11:09:49;;;;;;;1.13;1.03;;;17.80;97.90;;;;;;5048699;28;20242;-73
2022/06/02 11:12:46;;;;;;;1.20;1.10;;;17.60;98.00;;;;;;4986562;28;20283;-73
2022/06/02 11:15:55;;;;;;;1.10;1.00;;;17.50;98.30;;;;;;4986499;28;20198;-73
2022/06/02 11:19:05;;;;;;;1.10;0.90;;;17.40;98.70;;;;;;5014743;28;20204;-73
2022/06/02 11:21:59;;;;;;;2.73;0.97;;;17.80;98.40;;;;;;5038306;28;20214;-73
2022/06/02 11:24:59;;;;;;;1.40;1.30;;;18.10;96.90;;;;;;5048324;28;20230;-73
2022/06/02 11:27:43;;;;;;;1.30;1.17;;;18.40;96.20;;;;;;5043176;28;20262;-73
2022/06/02 11:30:32;;;;;;;2.10;0.80;;;18.60;96.50;;;;;;5048294;28;20200;-73
2022/06/02 11:33:23;;;;;;;1.13;1.03;;;18.80;95.20;;;;;;5040956;28;20224;-74
2022/06/02 11:36:27;;;;;;;2.57;0.80;;;19.10;95.30;;;;;;5028361;28;20279;-74
2022/06/02 11:39:24;;;;;;;1.83;0.97;;;19.00;95.10;;;;;;5028151;28;20242;-73
2022/06/02 11:41:58;;;;;;;2.20;2.10;;;18.90;94.70;;;;;;5027653;28;20651;-74
2022/06/02 11:44:37;;;;;;;1.53;0.80;;;19.00;94.80;;;;;;5028270;28;20263;-74
2022/06/02 11:47:38;;;;;;;0.53;0.50;;;19.30;94.30;;;;;;5028050;28;20815;-74
2022/06/02 11:50:33;;;;;;;1.03;0.70;;;19.30;94.00;;;;;;5027970;28;20639;-73
2022/06/02 11:53:26;;;;;;;1.13;0.73;;;19.10;94.30;;;;;;5027729;28;20684;-74
2022/06/02 11:55:59;;;;;;;0.60;0.57;;;19.10;93.70;;;;;;4994770;28;20744;-73
2022/06/02 11:59:00;;;;;;;0.90;0.90;;;19.10;93.70;;;;;;5027989;28;20197;-74
2022/06/02 12:01:44;;;;;;;0.83;0.50;;;19.30;94.10;;;;;;5028142;28;20212;-74
2022/06/02 12:04:43;;;;;;;0.80;0.80;;;19.10;93.50;;;;;;5027739;28;20655;-74
2022/06/02 12:07:34;;;;;;;2.17;0.87;;;19.20;93.60;;;;;;5046669;28;20208;-74
2022/06/02 12:10:53;;;;;;;1.10;1.00;;;19.00;93.30;;;;;;5047484;28;20196;-73
2022/06/02 12:13:41;;;;;;;1.43;1.20;;;18.80;94.10;;;;;;5047645;28;20297;-73
2022/06/02 12:16:30;;;;;;;2.00;0.70;;;18.70;94.00;;;;;;5044861;28;20189;-73
2022/06/02 12:19:43;;;;;;;1.23;0.87;;;18.60;93.20;;;;;;5045615;28;20211;-73
2022/06/02 12:22:46;;;;;;;0.80;0.80;;;18.90;93.90;;;;;;5047547;28;20254;-74
2022/06/02 12:25:35;;;;;;;0.97;0.60;;;19.40;92.70;;;;;;5047237;28;20204;-74
2022/06/02 12:28:23;;;;;;;4.03;1.07;;;19.60;92.00;;;;;;5047376;28;20250;-74
2022/06/02 12:31:22;;;;;;;1.40;0.73;;;19.90;92.60;;;;;;5027801;28;20212;-74
2022/06/02 12:34:05;;;;;;;2.70;1.20;;;20.00;92.60;;;;;;5027590;28;20217;-74
2022/06/02 12:36:51;;;;;;;1.67;0.93;;;19.90;92.60;;;;;;5027462;28;20628;-74
2022/06/02 12:39:35;;;;;;;0.80;0.80;;;20.00;92.20;;;;;;5031862;28;20618;-74
2022/06/02 12:42:38;;;;;;;1.73;0.73;;;20.00;91.20;;;;;;5027069;28;20232;-74
2022/06/02 12:45:43;;;;;;;2.97;0.80;;;20.30;91.80;;;;;;5027301;28;20659;-74
2022/06/02 12:48:51;;;;;;;0.77;0.77;;;20.70;91.20;;;;;;5039116;28;20203;-74
2022/06/02 12:51:34;;;;;;;3.93;1.20;;;20.30;90.90;;;;;;5047533;28;20204;-74
2022/06/02 12:55:00;;;;;;;2.17;0.90;;;20.20;91.60;;;;;;5047079;28;20254;-74
2022/06/02 12:58:14;;;;;;;0.90;0.90;;;20.50;91.70;;;;;;5047523;28;20254;-74
2022/06/02 13:00:55;;;;;;;1.00;1.00;;;20.50;91.20;;;;;;4985715;28;20202;-74
2022/06/02 13:03:54;;;;;;;1.00;0.90;;;20.60;91.10;;;;;;5045666;28;20212;-74
2022/06/02 13:06:51;;;;;;;1.13;1.03;;;20.70;91.50;;;;;;5047021;28;20208;-73
2022/06/02 13:09:36;;;;;;;1.67;0.97;;;21.10;91.00;;;;;;5025214;28;20204;-73
2022/06/02 13:12:36;;;;;;;1.40;0.83;;;21.50;91.40;;;;;;5047151;28;20211;-73
2022/06/02 13:15:37;;;;;;;2.33;1.03;;;21.80;90.10;;;;;;5045184;28;20310;-74
2022/06/02 13:18:40;;;;;;;1.53;0.90;;;21.40;88.50;;;;;;5039083;28;20212;-74
2022/06/02 13:21:39;;;;;;;1.20;1.00;;;21.00;88.00;;;;;;5035843;28;20259;-73
2022/06/02 13:24:53;;;;;;;1.20;1.13;;;20.50;90.10;;;;;;5040990;28;20215;-74
2022/06/02 13:27:50;;;;;;;1.50;1.40;;;20.90;90.90;;;;;;5025264;28;20197;-73
2022/06/02 13:30:34;;;;;;;1.27;1.07;;;21.50;90.40;;;;;;5013381;28;20281;-74
2022/06/02 13:33:53;;;;;;;0.90;0.90;;;21.30;90.30;;;;;;5028512;28;20204;-73
2022/06/02 13:36:35;;;;;;;3.47;1.17;;;21.10;90.00;;;;;;4973101;28;20238;-73
2022/06/02 13:39:32;;;;;;;0.93;0.90;;;20.60;90.70;;;;;;4966574;28;20203;-73
2022/06/02 13:42:23;;;;;;;1.33;0.80;;;20.10;91.10;;;;;;5019635;28;20232;-73
2022/06/02 13:45:18;;;;;;;2.23;0.90;;;19.80;91.40;;;;;;5028278;28;20189;-73
2022/06/02 13:48:29;;;;;;;1.50;1.40;;;19.80;91.70;;;;;;5036741;28;20196;-73
2022/06/02 13:51:28;;;;;;;1.03;1.03;;;19.70;92.00;;;;;;5014604;28;20208;-73
2022/06/02 13:57:38;;;;;;;1.43;1.10;;;19.90;92.40;;;;;;5029240;28;20265;-73
2022/06/02 14:00:18;;;;;;;1.20;0.90;;;20.20;92.50;;;;;;5028206;28;20193;-73
2022/06/02 14:03:07;;;;;;;0.87;0.80;;;20.50;91.10;;;;;;5039081;28;20665;-73
2022/06/02 14:06:07;;;;;;;0.70;0.70;;;20.10;91.90;;;;;;5028593;28;20243;-73
2022/06/02 14:08:58;;;;;;;0.90;0.90;;;20.00;92.20;;;;;;5018041;28;20213;-73
2022/06/02 14:11:43;;;;;;;0.90;0.90;;;20.50;92.40;;;;;;5047362;28;20740;-73
2022/06/02 14:14:40;;;;;;;2.50;1.10;;;20.90;92.20;;;;;;5037916;28;20695;-73
2022/06/02 14:17:18;;;;;;;0.80;0.80;;;20.80;91.30;;;;;;5004704;28;20209;-73
2022/06/02 14:20:08;;;;;;;1.77;1.20;;;20.40;92.00;;;;;;5037095;28;20212;-73
2022/06/02 14:22:45;;;;;;;1.50;1.07;;;20.10;91.80;;;;;;5041922;28;20274;-73
2022/06/02 14:25:20;;;;;;;1.80;1.23;;;20.30;92.10;;;;;;5042338;28;20675;-73
2022/06/02 14:28:07;;;;;;;3.17;1.10;;;20.60;91.80;;;;;;5027781;28;20251;-72
2022/06/02 14:30:42;;;;;;;1.27;1.10;;;20.90;91.20;;;;;;5027688;28;20231;-71
2022/06/02 14:33:17;;;;;;;1.00;1.00;;;20.30;90.90;;;;;;5042851;28;20257;-71